Time;durP1;ratioP1;P1;durP2;ratioP2;P2;SDS_P1;SDS_P2;PMS_P1;PMS_P2;Temp;Humidity;BMP_temperature;BMP_pressure;BME280_temperature;BME280_humidity;BME280_pressure;Samples;Min_cycle;Max_cycle;Signal;HPM_P1;HPM_P2
2021/05/08 00:02:14;;;;;;;5.20;3.22;;;;;;;4.05;74.65;100874.53;5043173;28;20060;-71
2021/05/08 00:04:39;;;;;;;5.53;3.08;;;;;;;3.99;74.72;100879.59;5121760;23;20072;-80
2021/05/08 00:07:04;;;;;;;4.75;3.17;;;;;;;3.93;75.18;100880.31;5077279;28;20032;-80
2021/05/08 00:09:30;;;;;;;6.20;3.42;;;;;;;3.84;74.49;100885.28;5083124;28;20037;-79
2021/05/08 00:11:56;;;;;;;5.60;3.08;;;;;;;3.74;75.08;100884.16;5077893;28;20090;-80
2021/05/08 00:14:23;;;;;;;6.95;4.15;;;;;;;3.71;75.85;100889.28;5075357;28;20059;-80
2021/05/08 00:16:49;;;;;;;6.50;3.88;;;;;;;3.64;76.23;100894.31;5075380;28;20117;-80
2021/05/08 00:19:14;;;;;;;5.07;3.78;;;;;;;3.62;76.80;100893.41;5073514;28;20166;-80
2021/05/08 00:21:39;;;;;;;6.07;4.05;;;;;;;3.58;76.48;100891.53;5091720;28;20052;-80
2021/05/08 00:24:05;;;;;;;4.95;3.25;;;;;;;3.54;76.44;100895.78;5074519;28;20094;-79
2021/05/08 00:26:31;;;;;;;5.43;3.35;;;;;;;3.52;75.90;100892.25;5073874;28;20078;-79
2021/05/08 00:28:57;;;;;;;5.72;4.05;;;;;;;3.47;76.12;100899.94;5077584;28;20070;-80
2021/05/08 00:31:22;;;;;;;5.97;3.70;;;;;;;3.42;76.12;100898.03;5072832;28;20079;-80
2021/05/08 00:33:48;;;;;;;6.00;3.50;;;;;;;3.40;76.62;100903.22;5091728;28;20032;-79
2021/05/08 00:36:14;;;;;;;6.25;3.88;;;;;;;3.42;76.85;100896.31;5066713;28;20518;-79
2021/05/08 00:38:39;;;;;;;6.47;3.47;;;;;;;3.41;76.43;100905.00;5074146;28;20138;-80
2021/05/08 00:41:05;;;;;;;5.18;3.22;;;;;;;3.44;76.84;100904.19;5076678;28;20040;-80
2021/05/08 00:43:32;;;;;;;5.88;3.90;;;;;;;3.43;76.82;100900.72;5073033;28;20032;-80
2021/05/08 00:45:57;;;;;;;5.13;3.67;;;;;;;3.42;76.82;100898.91;5090867;28;20056;-80
2021/05/08 00:48:23;;;;;;;5.32;3.70;;;;;;;3.37;77.57;100897.91;5075934;28;20075;-79
2021/05/08 00:50:50;;;;;;;6.78;4.50;;;;;;;3.34;77.00;100903.03;5071970;28;20033;-80
2021/05/08 00:53:15;;;;;;;6.90;4.15;;;;;;;3.30;77.15;100901.16;5091309;28;20025;-80
2021/05/08 00:55:41;;;;;;;6.80;4.32;;;;;;;3.28;77.32;100900.25;5073125;28;20035;-80
2021/05/08 00:58:08;;;;;;;5.82;4.13;;;;;;;3.27;77.00;100901.09;5090198;28;20029;-80
2021/05/08 01:00:35;;;;;;;4.82;3.25;;;;;;;3.22;77.40;100905.28;5074688;28;20028;-80
2021/05/08 01:03:02;;;;;;;7.40;4.45;;;;;;;3.13;77.08;100902.41;5060690;28;20109;-80
2021/05/08 01:05:32;;;;;;;5.78;3.47;;;;;;;3.06;77.17;100904.81;5074544;28;20058;-80
2021/05/08 01:08:02;;;;;;;6.97;4.53;;;;;;;3.03;78.09;100907.34;5073986;28;20024;-80
2021/05/08 01:10:29;;;;;;;5.00;3.67;;;;;;;3.00;77.78;100902.03;5077036;28;20032;-80
2021/05/08 01:12:59;;;;;;;7.45;3.88;;;;;;;2.91;77.91;100904.38;5073083;28;20056;-80
2021/05/08 01:15:25;;;;;;;5.85;3.90;;;;;;;2.83;78.51;100908.47;5075556;28;20025;-80
2021/05/08 01:17:51;;;;;;;5.63;3.92;;;;;;;2.78;78.57;100905.72;5071800;28;20040;-80
2021/05/08 01:20:17;;;;;;;6.97;4.50;;;;;;;2.76;78.26;100911.72;5075225;28;20043;-80
2021/05/08 01:22:45;;;;;;;8.13;4.82;;;;;;;2.72;78.22;100912.44;5064791;28;20040;-79
2021/05/08 01:25:17;;;;;;;6.95;4.35;;;;;;;2.69;78.67;100909.75;5073012;28;20037;-80
2021/05/08 01:27:50;;;;;;;5.93;4.10;;;;;;;2.63;78.54;100911.31;5076594;28;20108;-80
2021/05/08 01:30:21;;;;;;;6.90;4.45;;;;;;;2.57;78.65;100916.34;5088081;28;20029;-80
2021/05/08 01:32:47;;;;;;;6.65;4.13;;;;;;;2.51;78.29;100907.44;5074345;28;20033;-80
2021/05/08 01:35:12;;;;;;;5.55;3.83;;;;;;;2.46;78.71;100902.06;5072726;28;20123;-80
2021/05/08 01:37:38;;;;;;;6.85;4.80;;;;;;;2.38;80.08;100911.34;5088830;28;20682;-80
2021/05/08 01:40:08;;;;;;;7.45;4.65;;;;;;;2.34;79.34;100912.09;5073237;28;20043;-80
2021/05/08 01:42:34;;;;;;;7.53;4.57;;;;;;;2.30;79.43;100928.44;5071938;28;20040;-79
2021/05/08 01:45:17;;;;;;;7.43;4.97;;;;;;;2.24;79.93;100915.22;5090066;28;20060;-80
2021/05/08 01:47:43;;;;;;;12.73;5.82;;;;;;;2.23;79.50;100921.25;5059537;28;20459;-80
2021/05/08 01:50:11;;;;;;;6.25;4.10;;;;;;;2.19;79.10;100921.16;5089135;28;20115;-80
2021/05/08 01:52:38;;;;;;;8.15;4.68;;;;;;;2.12;79.46;100921.78;5064789;28;20058;-80
2021/05/08 01:55:09;;;;;;;7.00;4.90;;;;;;;2.11;79.98;100917.41;5087298;28;20070;-80
2021/05/08 01:57:50;;;;;;;8.00;4.65;;;;;;;2.12;80.50;100921.78;5088078;28;20040;-80
2021/05/08 02:00:21;;;;;;;6.53;5.00;;;;;;;2.11;80.46;100920.00;5067178;28;20040;-79
2021/05/08 02:02:49;;;;;;;5.82;4.22;;;;;;;2.14;79.91;100921.84;5072961;28;20043;-80
2021/05/08 02:05:23;;;;;;;8.40;4.63;;;;;;;2.13;80.21;100913.13;5073690;28;20032;-79
2021/05/08 02:07:53;;;;;;;10.20;5.22;;;;;;;2.15;80.03;100927.09;5071221;28;20358;-79
2021/05/08 02:10:19;;;;;;;8.63;5.15;;;;;;;2.11;80.08;100922.59;5072470;28;20040;-80
2021/05/08 02:12:46;;;;;;;5.80;4.55;;;;;;;2.12;80.47;100923.50;5072315;28;20035;-79
2021/05/08 02:15:17;;;;;;;8.60;5.25;;;;;;;2.10;80.21;100923.47;5071926;28;20037;-79
2021/05/08 02:17:43;;;;;;;8.23;4.65;;;;;;;2.07;80.20;100923.34;5072573;28;20035;-79
2021/05/08 02:20:17;;;;;;;8.93;4.60;;;;;;;2.09;80.26;100926.88;5072168;28;20036;-79
2021/05/08 02:22:43;;;;;;;6.80;4.57;;;;;;;2.09;79.72;100921.66;5069165;28;20041;-80
2021/05/08 02:25:11;;;;;;;7.25;4.70;;;;;;;2.07;80.03;100925.97;5072373;28;20139;-79
2021/05/08 02:27:38;;;;;;;7.45;5.32;;;;;;;2.07;80.51;100919.84;5078113;28;20040;-79
2021/05/08 02:30:06;;;;;;;8.50;4.65;;;;;;;2.10;80.51;100920.84;5075106;28;20071;-80
2021/05/08 02:32:31;;;;;;;7.47;4.78;;;;;;;2.12;79.85;100926.09;5088085;28;20036;-79
2021/05/08 02:34:57;;;;;;;9.18;4.65;;;;;;;2.09;79.63;100926.88;5072169;28;20032;-80
2021/05/08 02:37:24;;;;;;;7.93;5.65;;;;;;;2.03;80.22;100926.66;5070714;28;20278;-79
2021/05/08 02:39:49;;;;;;;6.35;4.55;;;;;;;1.97;79.33;100927.34;5044954;28;20033;-80
2021/05/08 02:42:14;;;;;;;6.10;3.92;;;;;;;1.96;79.29;100927.28;5072558;28;20028;-79
2021/05/08 02:44:40;;;;;;;7.63;5.20;;;;;;;1.96;79.51;100924.69;5071196;28;20071;-79
2021/05/08 02:47:17;;;;;;;6.15;4.40;;;;;;;1.96;79.26;100929.88;5069483;28;20481;-80
2021/05/08 02:49:50;;;;;;;6.05;4.22;;;;;;;2.00;79.18;100931.78;5067211;28;20025;-79
2021/05/08 02:52:19;;;;;;;7.68;4.50;;;;;;;2.02;79.25;100937.03;5086048;28;20483;-79
2021/05/08 02:54:45;;;;;;;7.45;4.63;;;;;;;2.03;79.22;100936.22;5066052;28;20041;-80
2021/05/08 02:57:10;;;;;;;7.88;4.93;;;;;;;2.03;79.54;100931.88;5087730;28;20033;-79
2021/05/08 02:59:36;;;;;;;6.63;4.50;;;;;;;2.09;78.94;100942.50;5071317;28;20025;-79
2021/05/08 03:02:03;;;;;;;6.78;4.53;;;;;;;2.08;78.82;100938.13;5082379;28;20029;-80
2021/05/08 03:04:29;;;;;;;7.57;4.03;;;;;;;2.13;78.76;100936.56;5073490;28;20120;-79
2021/05/08 03:06:55;;;;;;;6.22;4.50;;;;;;;2.22;78.94;100932.50;5071671;28;20052;-79
2021/05/08 03:09:21;;;;;;;6.85;4.57;;;;;;;2.32;78.83;100930.25;5087462;28;20163;-79
2021/05/08 03:11:46;;;;;;;8.05;5.00;;;;;;;2.34;78.67;100933.81;5071573;28;20036;-79
2021/05/08 03:14:15;;;;;;;7.15;4.40;;;;;;;2.33;78.63;100928.53;5085256;28;20024;-79
2021/05/08 03:16:42;;;;;;;9.27;4.88;;;;;;;2.31;78.24;100932.84;5087829;28;20037;-79
2021/05/08 03:19:08;;;;;;;9.02;4.13;;;;;;;2.27;78.54;100926.63;5069994;28;20055;-79
2021/05/08 03:21:35;;;;;;;5.75;4.10;;;;;;;2.20;78.65;100927.22;5086025;28;20033;-79
2021/05/08 03:24:02;;;;;;;6.32;4.28;;;;;;;2.13;78.25;100928.75;5072434;28;20032;-80
2021/05/08 03:26:27;;;;;;;8.57;4.97;;;;;;;2.08;78.83;100927.72;5068916;28;20037;-80
2021/05/08 03:28:53;;;;;;;7.88;5.10;;;;;;;2.02;79.14;100937.94;5086207;28;20554;-80
2021/05/08 03:31:18;;;;;;;7.47;5.22;;;;;;;1.98;78.59;100943.84;5064989;28;20119;-80
2021/05/08 03:33:44;;;;;;;7.45;4.55;;;;;;;1.91;78.60;100931.44;5072543;28;20110;-80
2021/05/08 03:36:10;;;;;;;7.15;4.68;;;;;;;1.83;79.12;100949.38;5059590;28;20047;-80
2021/05/08 03:38:37;;;;;;;7.32;5.38;;;;;;;1.75;79.25;100951.72;5070776;28;20028;-80
2021/05/08 03:41:03;;;;;;;9.73;4.75;;;;;;;1.69;79.32;100950.63;5070639;28;20067;-80
2021/05/08 03:43:29;;;;;;;8.57;5.10;;;;;;;1.68;79.63;100947.13;5069988;28;20517;-80
2021/05/08 03:45:54;;;;;;;6.93;4.95;;;;;;;1.71;79.64;100951.56;5065994;28;20032;-80
2021/05/08 03:48:19;;;;;;;8.77;4.40;;;;;;;1.73;79.77;100953.41;5070093;28;20028;-80
2021/05/08 03:50:45;;;;;;;7.90;4.80;;;;;;;1.74;78.83;100947.34;5072125;28;20461;-79
2021/05/08 03:53:11;;;;;;;6.90;4.97;;;;;;;1.78;79.59;100955.25;5071143;28;20384;-80
2021/05/08 03:55:38;;;;;;;8.23;5.50;;;;;;;1.80;nan;100956.22;5073193;28;20044;-80
2021/05/08 03:58:04;;;;;;;7.85;5.10;;;;;;;1.81;79.51;100960.56;5076255;28;20078;-80
2021/05/08 04:00:29;;;;;;;5.97;4.13;;;;;;;1.82;79.31;100960.63;5072631;28;20041;-80
2021/05/08 04:02:54;;;;;;;6.90;4.25;;;;;;;1.77;78.79;100953.50;5073980;28;20043;-80
2021/05/08 04:05:20;;;;;;;8.00;5.05;;;;;;;1.73;79.32;100953.41;5073926;28;20033;-80
2021/05/08 04:07:45;;;;;;;7.63;4.50;;;;;;;1.75;78.77;100959.50;5072835;28;20040;-80
2021/05/08 04:10:11;;;;;;;7.28;5.10;;;;;;;1.74;79.63;100965.56;5075928;28;20055;-80
2021/05/08 04:12:36;;;;;;;7.50;5.35;;;;;;;1.78;79.44;100966.53;5071989;28;20032;-80
2021/05/08 04:15:02;;;;;;;8.77;6.27;;;;;;;1.83;79.25;100965.00;5055830;28;20040;-80
2021/05/08 04:17:27;;;;;;;10.00;6.00;;;;;;;1.92;79.41;100970.56;5075265;28;20036;-80
2021/05/08 04:19:53;;;;;;;9.68;6.75;;;;;;;2.02;79.73;100976.06;5072461;28;20037;-80
2021/05/08 04:22:18;;;;;;;8.90;6.03;;;;;;;2.11;79.03;100964.28;5074907;28;20044;-80
2021/05/08 04:24:43;;;;;;;8.05;5.50;;;;;;;2.23;79.52;100962.91;5073202;28;20032;-80
2021/05/08 04:27:09;;;;;;;8.73;5.20;;;;;;;2.36;79.54;100970.34;5073100;28;20036;-80
2021/05/08 04:29:34;;;;;;;7.55;5.00;;;;;;;2.50;78.99;100971.69;5073310;28;20034;-79
2021/05/08 04:31:59;;;;;;;7.10;4.88;;;;;;;2.68;78.50;100966.19;5071950;28;20029;-80
2021/05/08 04:34:25;;;;;;;6.35;4.45;;;;;;;2.88;77.97;100974.66;5074222;28;20033;-80
2021/05/08 04:36:50;;;;;;;7.90;4.60;;;;;;;3.07;77.46;100977.00;5072797;28;20055;-79
2021/05/08 04:39:16;;;;;;;6.57;4.10;;;;;;;3.26;76.96;100969.75;5073293;28;20045;-80
2021/05/08 04:41:41;;;;;;;6.63;4.78;;;;;;;3.43;76.57;100971.16;5074433;28;20028;-80
2021/05/08 04:44:07;;;;;;;5.60;3.75;;;;;;;3.63;76.04;100968.25;5087167;28;20513;-79
2021/05/08 04:46:33;;;;;;;7.47;4.50;;;;;;;3.77;75.72;100966.88;5089931;28;20525;-80
2021/05/08 04:48:59;;;;;;;23.10;11.80;;;;;;;3.89;75.64;100961.16;5071205;28;20436;-79
2021/05/08 04:51:24;;;;;;;8.93;4.43;;;;;;;4.01;74.36;100973.66;5072227;28;20079;-80
2021/05/08 04:53:49;;;;;;;6.35;4.05;;;;;;;4.05;74.35;100983.34;5074385;28;20036;-79
2021/05/08 04:56:16;;;;;;;5.97;3.60;;;;;;;4.06;73.74;100969.44;5071193;28;20092;-80
2021/05/08 04:58:43;;;;;;;5.55;3.78;;;;;;;4.18;73.94;100967.16;5088992;28;20040;-80
2021/05/08 05:01:08;;;;;;;7.57;3.33;;;;;;;4.25;72.56;100969.09;5073469;28;20045;-80
2021/05/08 05:03:34;;;;;;;5.13;3.40;;;;;;;4.38;72.46;100973.81;5071562;28;20028;-79
2021/05/08 05:05:59;;;;;;;7.35;3.22;;;;;;;4.56;72.21;100967.28;5074348;28;20040;-80
2021/05/08 05:08:25;;;;;;;5.45;3.42;;;;;;;4.71;72.36;100972.00;5079624;28;20032;-80
2021/05/08 05:10:51;;;;;;;5.45;3.50;;;;;;;4.81;71.54;100974.00;5073068;28;20033;-80
2021/05/08 05:13:17;;;;;;;7.10;3.45;;;;;;;4.87;71.18;100973.25;5072722;28;20078;-80
2021/05/08 05:15:42;;;;;;;6.10;4.13;;;;;;;4.87;71.19;100978.47;5071202;28;20040;-80
2021/05/08 05:18:07;;;;;;;5.65;3.88;;;;;;;4.88;71.39;100975.91;5073623;28;20024;-80
2021/05/08 05:20:33;;;;;;;7.20;3.80;;;;;;;4.89;70.74;100987.25;5061992;28;20101;-80
2021/05/08 05:22:58;;;;;;;8.32;4.28;;;;;;;5.00;70.67;100986.69;5072238;28;20089;-80
2021/05/08 05:25:23;;;;;;;5.20;3.35;;;;;;;5.11;70.22;100993.88;5072616;28;20036;-79
2021/05/08 05:27:49;;;;;;;5.60;3.72;;;;;;;5.22;70.16;100993.28;5069848;28;20033;-79
2021/05/08 05:30:15;;;;;;;5.53;3.30;;;;;;;5.28;69.83;100997.78;5072342;28;20268;-79
2021/05/08 05:32:40;;;;;;;6.60;4.07;;;;;;;5.36;69.87;100996.22;5068411;28;20130;-80
2021/05/08 05:35:06;;;;;;;5.97;3.80;;;;;;;5.42;69.55;100984.97;5070733;28;20119;-80
2021/05/08 05:37:31;;;;;;;7.47;4.38;;;;;;;5.51;69.39;100989.56;5071746;28;20059;-79
2021/05/08 05:39:57;;;;;;;7.60;3.58;;;;;;;5.52;68.33;100992.19;5067845;28;20121;-79
2021/05/08 05:42:22;;;;;;;5.38;3.28;;;;;;;5.64;68.34;100995.09;5076660;28;20021;-80
2021/05/08 05:44:47;;;;;;;7.10;4.30;;;;;;;5.75;68.19;101000.53;5070865;28;20514;-79
2021/05/08 05:47:22;;;;;;;7.43;3.78;;;;;;;5.87;67.70;100999.94;5069754;28;20130;-79
2021/05/08 05:49:52;;;;;;;6.72;4.18;;;;;;;5.98;68.20;101008.03;5069574;28;20037;-79
2021/05/08 05:52:18;;;;;;;4.82;3.60;;;;;;;6.06;67.49;101009.94;5066967;28;20143;-79
2021/05/08 05:54:45;;;;;;;5.03;3.35;;;;;;;6.17;67.57;100998.78;5071320;28;20032;-79
2021/05/08 05:57:11;;;;;;;8.48;3.90;;;;;;;6.23;66.70;100998.91;5085029;28;20039;-79
2021/05/08 05:59:36;;;;;;;6.22;3.83;;;;;;;6.33;65.99;100996.47;5072701;28;20040;-79
2021/05/08 06:02:04;;;;;;;6.97;3.70;;;;;;;6.42;64.66;101006.28;5062217;28;20058;-79
2021/05/08 06:04:29;;;;;;;5.35;3.75;;;;;;;6.49;64.16;101002.88;5066795;28;20032;-79
2021/05/08 06:06:55;;;;;;;5.32;3.67;;;;;;;6.55;63.92;101002.13;5064942;28;20029;-79
2021/05/08 06:09:20;;;;;;;8.15;3.83;;;;;;;6.67;64.05;100997.09;5067054;28;20047;-79
2021/05/08 06:11:45;;;;;;;6.63;4.00;;;;;;;6.83;64.72;100992.97;5064663;28;20033;-79
2021/05/08 06:14:11;;;;;;;7.53;4.00;;;;;;;6.97;64.42;100994.09;5081144;28;20375;-79
2021/05/08 06:16:36;;;;;;;9.30;3.92;;;;;;;7.08;63.92;101003.88;5065259;28;20037;-79
2021/05/08 06:19:02;;;;;;;6.10;4.00;;;;;;;7.15;62.20;100989.97;5064308;28;20053;-79
2021/05/08 06:21:27;;;;;;;6.53;4.20;;;;;;;7.28;63.58;100996.28;5066226;28;20082;-79
2021/05/08 06:23:52;;;;;;;8.13;4.25;;;;;;;7.40;62.91;100997.34;5072287;28;20106;-79
2021/05/08 06:26:18;;;;;;;10.75;4.50;;;;;;;7.56;62.91;100992.31;5065445;28;20063;-79
2021/05/08 06:28:43;;;;;;;7.95;4.40;;;;;;;7.76;62.98;100990.84;5065671;28;20028;-79
2021/05/08 06:31:09;;;;;;;7.20;4.68;;;;;;;7.93;61.96;100992.78;5078998;28;20076;-79
2021/05/08 06:33:34;;;;;;;6.25;4.13;;;;;;;8.00;62.05;100994.63;5059598;28;20037;-79
2021/05/08 06:35:59;;;;;;;7.10;4.03;;;;;;;8.00;60.90;100997.25;5065523;28;20047;-79
2021/05/08 06:38:24;;;;;;;7.00;4.25;;;;;;;8.11;59.26;100998.25;5065033;28;20035;-79
2021/05/08 06:40:50;;;;;;;7.15;3.97;;;;;;;8.16;58.14;101008.84;5079107;28;20041;-79
2021/05/08 06:43:15;;;;;;;7.72;3.60;;;;;;;8.15;58.17;101014.94;5065349;28;20032;-79
2021/05/08 06:45:41;;;;;;;5.82;3.50;;;;;;;8.13;57.75;101022.81;5061276;28;20403;-79
2021/05/08 06:48:07;;;;;;;7.13;4.43;;;;;;;8.17;57.95;101007.97;5080435;28;20028;-79
2021/05/08 06:50:33;;;;;;;5.68;3.58;;;;;;;8.22;57.88;101006.25;5063852;28;20059;-79
2021/05/08 06:52:58;;;;;;;8.45;4.13;;;;;;;8.21;56.93;101021.16;5061322;28;20615;-79
2021/05/08 06:55:24;;;;;;;6.50;3.72;;;;;;;8.39;58.69;101019.63;5065232;28;20044;-79
2021/05/08 06:57:49;;;;;;;5.30;3.97;;;;;;;8.42;57.24;101019.69;5062029;28;20037;-78
2021/05/08 07:00:17;;;;;;;7.15;4.25;;;;;;;8.46;58.08;101017.09;5063436;28;20491;-79
2021/05/08 07:02:42;;;;;;;6.82;4.47;;;;;;;8.52;58.03;101032.06;5054801;28;20028;-79
2021/05/08 07:05:08;;;;;;;7.35;4.43;;;;;;;8.64;57.91;101023.38;5076980;28;20102;-79
2021/05/08 07:07:33;;;;;;;7.28;4.00;;;;;;;8.65;57.23;101020.78;5057744;28;20033;-79
2021/05/08 07:09:58;;;;;;;8.25;4.05;;;;;;;8.73;57.39;101007.69;5063971;28;20042;-79
2021/05/08 07:12:24;;;;;;;8.27;5.13;;;;;;;8.83;57.43;101021.81;5062573;28;20052;-79
2021/05/08 07:14:49;;;;;;;9.20;4.75;;;;;;;8.83;56.50;101011.28;5062194;28;20084;-79
2021/05/08 07:17:14;;;;;;;7.03;4.22;;;;;;;8.97;56.98;101014.91;5064205;28;20537;-79
2021/05/08 07:19:40;;;;;;;10.77;4.70;;;;;;;9.07;57.39;101006.22;5048524;28;20036;-79
2021/05/08 07:22:05;;;;;;;6.43;4.28;;;;;;;9.13;56.46;101013.28;5078615;28;20517;-79
2021/05/08 07:24:30;;;;;;;6.63;5.00;;;;;;;9.27;56.02;101013.38;5062711;28;20524;-79
2021/05/08 07:26:57;;;;;;;7.38;4.35;;;;;;;9.35;56.81;101009.03;5061670;28;20021;-79
2021/05/08 07:29:24;;;;;;;5.78;4.13;;;;;;;9.43;54.86;101007.31;5069232;28;20106;-79
2021/05/08 07:31:50;;;;;;;5.88;4.60;;;;;;;9.52;56.11;101003.88;5082702;28;20040;-78
2021/05/08 07:34:15;;;;;;;7.70;4.70;;;;;;;9.59;55.76;101010.97;5066263;28;20044;-79
2021/05/08 07:36:40;;;;;;;6.28;4.65;;;;;;;9.65;54.61;101011.00;5064233;28;20029;-79
2021/05/08 07:39:06;;;;;;;8.23;4.90;;;;;;;9.65;55.05;101009.22;5067616;28;20040;-79
2021/05/08 07:41:31;;;;;;;10.35;4.97;;;;;;;9.63;54.49;101013.59;5064752;28;20075;-79
2021/05/08 07:43:57;;;;;;;10.45;5.22;;;;;;;9.81;54.44;101007.53;5082331;28;20035;-79
2021/05/08 07:46:22;;;;;;;6.93;4.70;;;;;;;9.84;52.61;101006.69;5065973;28;20115;-79
2021/05/08 07:48:47;;;;;;;7.38;5.13;;;;;;;9.91;53.43;101007.59;5080479;28;20025;-79
2021/05/08 07:51:13;;;;;;;8.48;5.45;;;;;;;9.98;53.60;101009.38;5071189;28;20098;-79
2021/05/08 07:53:38;;;;;;;8.98;5.15;;;;;;;10.00;52.32;101002.34;5067462;28;20040;-79
2021/05/08 07:56:03;;;;;;;9.93;5.28;;;;;;;10.07;52.88;101012.94;5065459;28;20116;-79
2021/05/08 07:58:29;;;;;;;7.90;5.60;;;;;;;10.21;53.73;100998.91;5066135;28;20036;-79
2021/05/08 08:00:54;;;;;;;7.68;5.85;;;;;;;10.24;53.03;101001.53;5066758;28;20025;-79
2021/05/08 08:03:19;;;;;;;7.57;5.82;;;;;;;10.33;52.68;101001.63;5079627;28;20036;-80
2021/05/08 08:05:45;;;;;;;7.82;6.22;;;;;;;10.38;51.43;101010.41;5072160;28;20034;-79
2021/05/08 08:08:10;;;;;;;9.02;5.80;;;;;;;10.48;51.88;100998.13;5065664;28;20551;-79
2021/05/08 08:10:35;;;;;;;9.25;6.10;;;;;;;10.55;51.43;101006.94;5064250;28;20041;-79
2021/05/08 08:13:01;;;;;;;7.95;5.53;;;;;;;10.62;52.00;101008.72;5063575;28;20044;-79
2021/05/08 08:15:26;;;;;;;9.55;5.88;;;;;;;10.64;50.61;101001.69;5066736;28;20032;-79
2021/05/08 08:17:52;;;;;;;9.25;6.47;;;;;;;10.63;51.23;101015.72;5059599;28;20036;-79
2021/05/08 08:20:17;;;;;;;8.00;5.47;;;;;;;10.69;50.19;100997.28;5081727;28;20033;-78
2021/05/08 08:22:44;;;;;;;8.57;5.82;;;;;;;10.78;50.27;100999.91;5065262;28;20079;-79
2021/05/08 08:25:11;;;;;;;8.93;5.72;;;;;;;10.88;48.24;101003.44;5079825;28;20124;-79
2021/05/08 08:27:38;;;;;;;8.18;5.22;;;;;;;10.88;48.91;101012.25;5066906;28;20029;-79
2021/05/08 08:30:05;;;;;;;7.78;6.03;;;;;;;11.00;48.74;101006.06;5063159;28;20369;-79
2021/05/08 08:32:30;;;;;;;8.77;5.80;;;;;;;11.16;48.57;101001.66;5080335;28;20135;-79
2021/05/08 08:34:56;;;;;;;8.82;5.70;;;;;;;11.23;48.12;100998.13;5057065;28;20080;-79
2021/05/08 08:37:21;;;;;;;10.45;6.18;;;;;;;11.27;48.42;100994.59;5063729;28;20044;-79
2021/05/08 08:39:47;;;;;;;8.27;5.32;;;;;;;11.35;47.25;100991.97;5064591;28;20494;-79
2021/05/08 08:42:12;;;;;;;9.23;5.13;;;;;;;11.47;48.26;100997.19;5064578;28;20082;-79
2021/05/08 08:44:38;;;;;;;8.05;5.07;;;;;;;11.54;46.56;100992.78;5080289;28;20043;-79
2021/05/08 08:47:04;;;;;;;8.05;5.63;;;;;;;11.51;45.28;100988.38;5053764;28;20033;-79
2021/05/08 08:49:30;;;;;;;7.82;6.40;;;;;;;11.73;46.11;100997.13;5066626;28;20044;-79
2021/05/08 08:51:56;;;;;;;9.00;5.57;;;;;;;11.85;45.07;100994.44;5062891;28;20037;-79
2021/05/08 08:54:21;;;;;;;7.65;5.38;;;;;;;11.94;46.18;100995.31;5064610;28;20041;-79
2021/05/08 08:56:47;;;;;;;7.43;5.40;;;;;;;12.15;44.82;100997.84;5056605;28;20123;-79
2021/05/08 09:01:47;;;;;;;8.93;5.50;;;;;;;12.47;43.21;100995.03;5080778;28;20139;-79
2021/05/08 09:04:14;;;;;;;8.55;5.13;;;;;;;12.50;43.59;100984.44;5065142;28;20047;-79
2021/05/08 09:06:44;;;;;;;6.78;5.57;;;;;;;12.68;44.98;100980.78;5078191;28;20041;-79
2021/05/08 09:09:10;;;;;;;6.10;4.63;;;;;;;12.91;43.81;100991.16;5065190;28;20044;-79
2021/05/08 09:11:49;;;;;;;6.68;4.43;;;;;;;13.09;41.10;100970.69;5055490;28;20033;-79
2021/05/08 09:14:22;;;;;;;7.32;5.18;;;;;;;13.22;41.96;100982.06;5059394;28;20806;-80
2021/05/08 09:17:07;;;;;;;10.63;7.82;;;;;;;13.04;41.55;100980.47;5079180;28;20032;-79
2021/05/08 09:19:40;;;;;;;7.07;5.45;;;;;;;12.98;42.22;100981.41;5077716;28;20037;-79
2021/05/08 09:22:35;;;;;;;5.93;4.60;;;;;;;12.96;41.95;100977.88;5077958;28;20087;-80
2021/05/08 09:25:12;;;;;;;5.60;4.63;;;;;;;12.78;40.70;100978.03;5059390;28;20049;-79
2021/05/08 09:27:38;;;;;;;7.85;4.75;;;;;;;12.65;41.85;100977.25;5078024;28;20044;-79
2021/05/08 09:30:23;;;;;;;7.93;4.78;;;;;;;12.80;40.49;100982.44;5061431;28;20037;-79
2021/05/08 09:32:56;;;;;;;6.57;4.55;;;;;;;13.04;42.61;100972.50;5077669;28;20514;-80
2021/05/08 09:35:24;;;;;;;9.20;5.03;;;;;;;13.51;41.62;100974.69;5079397;28;20037;-79
2021/05/08 09:37:51;;;;;;;7.15;4.88;;;;;;;13.79;38.26;100982.34;5065680;28;20082;-79
2021/05/08 09:40:16;;;;;;;6.80;4.95;;;;;;;13.89;38.31;100970.72;5066421;28;20041;-80
2021/05/08 09:42:51;;;;;;;6.35;5.05;;;;;;;13.78;38.38;100975.28;5080093;28;20147;-79
2021/05/08 09:45:17;;;;;;;9.30;5.80;;;;;;;14.00;37.41;100971.47;5064866;28;20037;-79
2021/05/08 09:47:43;;;;;;;7.03;4.97;;;;;;;14.07;36.44;100966.06;5062103;28;20074;-79
2021/05/08 09:50:09;;;;;;;6.95;4.70;;;;;;;14.06;36.45;100969.63;5064473;28;20478;-79
2021/05/08 09:52:52;;;;;;;6.57;4.00;;;;;;;14.54;38.35;100973.41;5061349;28;20040;-79
2021/05/08 09:55:19;;;;;;;6.07;4.35;;;;;;;14.59;35.37;100963.56;5058842;28;20071;-79
2021/05/08 09:58:07;;;;;;;6.13;4.50;;;;;;;14.38;35.90;100958.53;5063170;28;20073;-79
2021/05/08 10:00:40;;;;;;;8.02;4.82;;;;;;;14.31;36.34;100964.88;5062323;28;20036;-79
2021/05/08 10:03:09;;;;;;;6.60;4.88;;;;;;;14.28;36.12;100972.84;5057712;28;20045;-79
2021/05/08 10:05:35;;;;;;;5.95;4.15;;;;;;;14.31;36.35;100971.03;5079244;28;20036;-79
2021/05/08 10:08:01;;;;;;;5.93;4.47;;;;;;;14.68;35.02;100946.59;5055214;28;20096;-79
2021/05/08 10:10:27;;;;;;;6.97;4.30;;;;;;;14.92;35.45;100944.44;5077463;28;20032;-79
2021/05/08 10:12:54;;;;;;;7.07;4.35;;;;;;;15.04;35.98;100953.06;5057889;28;20036;-79
2021/05/08 10:15:20;;;;;;;6.88;4.78;;;;;;;15.03;34.33;100945.13;5064033;28;20043;-79
2021/05/08 10:17:48;;;;;;;7.40;4.38;;;;;;;15.15;34.38;100946.69;5054807;28;20565;-79
2021/05/08 10:20:15;;;;;;;7.53;4.50;;;;;;;15.49;33.87;100944.25;5061640;28;20134;-79
2021/05/08 10:22:53;;;;;;;5.68;3.45;;;;;;;15.13;31.80;100947.56;5075155;28;20619;-80
2021/05/08 10:25:19;;;;;;;5.93;3.42;;;;;;;15.30;31.80;100952.59;5064466;28;20043;-79
2021/05/08 10:27:45;;;;;;;5.63;3.63;;;;;;;15.37;33.62;100939.16;5061616;28;20033;-79
2021/05/08 10:30:17;;;;;;;6.72;3.75;;;;;;;15.51;32.22;100932.69;5062567;28;20043;-80
2021/05/08 10:32:45;;;;;;;5.43;3.20;;;;;;;15.78;32.12;100935.72;5071803;28;20486;-80
2021/05/08 10:35:12;;;;;;;6.68;3.22;;;;;;;15.76;30.39;100942.84;5077038;28;20516;-79
2021/05/08 10:37:38;;;;;;;5.28;3.40;;;;;;;15.68;29.41;100934.13;5079252;28;20426;-79
2021/05/08 10:40:04;;;;;;;5.18;3.47;;;;;;;15.89;31.21;100938.13;5061436;28;20035;-79
2021/05/08 10:42:29;;;;;;;5.85;3.08;;;;;;;16.27;32.17;100929.31;5061447;28;20457;-79
2021/05/08 10:44:55;;;;;;;5.07;3.42;;;;;;;16.33;29.90;100922.94;5064380;28;20043;-79
2021/05/08 10:47:20;;;;;;;7.57;3.28;;;;;;;16.12;31.48;100922.53;5061335;28;20033;-80
2021/05/08 10:50:24;;;;;;;8.02;2.95;;;;;;;15.88;30.30;100925.75;5078949;28;20040;-79
2021/05/08 10:53:17;;;;;;;5.40;4.05;;;;;;;15.45;30.96;100916.81;5063532;28;20044;-79
2021/05/08 10:55:58;;;;;;;6.82;3.60;;;;;;;14.81;32.74;100920.72;5057695;28;20047;-79
2021/05/08 10:58:23;;;;;;;5.28;3.30;;;;;;;14.65;32.63;100930.72;5061170;28;20116;-79
2021/05/08 11:00:59;;;;;;;6.55;3.10;;;;;;;14.64;32.47;100920.97;5064507;28;20070;-79
2021/05/08 11:03:30;;;;;;;4.80;3.20;;;;;;;15.01;33.80;100925.66;5071938;28;20090;-79
2021/05/08 11:06:04;;;;;;;5.85;2.78;;;;;;;15.31;31.90;100919.75;5080863;28;20041;-80
2021/05/08 11:08:30;;;;;;;5.63;3.30;;;;;;;15.19;32.01;100912.00;5082164;28;20048;-79
2021/05/08 11:11:13;;;;;;;4.85;2.90;;;;;;;15.09;32.93;100914.00;5066551;28;20048;-79
2021/05/08 11:13:41;;;;;;;4.55;3.10;;;;;;;15.08;33.36;100906.03;5065379;28;20032;-80
2021/05/08 11:16:08;;;;;;;5.10;3.08;;;;;;;15.30;32.43;100909.16;5080944;28;20462;-79
2021/05/08 11:21:10;;;;;;;6.15;2.85;;;;;;;15.30;31.52;100915.38;5066802;28;20041;-79
2021/05/08 11:23:50;;;;;;;4.75;3.25;;;;;;;14.90;30.43;100912.56;5065087;28;20458;-79
2021/05/08 11:26:38;;;;;;;5.07;2.83;;;;;;;14.96;32.35;100895.63;5064564;28;20037;-79
2021/05/08 11:29:16;;;;;;;4.85;2.80;;;;;;;15.26;30.92;100891.50;5056999;28;20047;-79
2021/05/08 11:31:50;;;;;;;5.25;2.78;;;;;;;15.18;30.14;100896.09;5063280;28;20045;-80
2021/05/08 11:34:26;;;;;;;4.82;2.85;;;;;;;15.60;31.22;100899.69;5064600;28;20037;-79
2021/05/08 11:37:00;;;;;;;4.95;2.60;;;;;;;15.73;30.95;100901.22;5081902;28;20500;-79
2021/05/08 11:39:26;;;;;;;4.95;2.80;;;;;;;15.87;29.82;100882.25;5066698;28;20040;-79